createdAt,value
2023-02-11T00:02:09.035Z,0.10
2023-02-11T00:04:35.968Z,0.00
2023-02-11T00:07:02.788Z,0.00
2023-02-11T00:09:31.806Z,0.00
2023-02-11T00:11:58.833Z,-0.10
2023-02-11T00:14:25.507Z,-0.10
2023-02-11T00:16:52.221Z,-0.10
2023-02-11T00:19:19.155Z,-0.10
2023-02-11T00:21:45.790Z,-0.20
2023-02-11T00:24:12.441Z,-0.30
2023-02-11T00:26:39.328Z,-0.30
2023-02-11T00:29:06.443Z,-0.40
2023-02-11T00:31:33.487Z,-0.40
2023-02-11T00:34:00.566Z,-0.30
2023-02-11T00:36:28.774Z,-0.30
2023-02-11T00:38:56.939Z,-0.20
2023-02-11T00:41:24.706Z,-0.20
2023-02-11T00:43:52.547Z,-0.10
2023-02-11T00:46:19.538Z,-0.20
2023-02-11T00:48:46.331Z,-0.20
2023-02-11T00:51:13.099Z,-0.30
2023-02-11T00:53:40.128Z,-0.30
2023-02-11T00:56:07.848Z,-0.30
2023-02-11T00:58:34.954Z,-0.30
2023-02-11T01:01:02.014Z,-0.30
2023-02-11T01:03:29.091Z,-0.20
2023-02-11T01:05:56.053Z,-0.20
2023-02-11T01:08:22.869Z,-0.30
2023-02-11T01:11:01.740Z,-0.30
2023-02-11T01:13:30.183Z,-0.40
2023-02-11T01:15:57.518Z,-0.40
2023-02-11T01:18:24.515Z,-0.40
2023-02-11T01:20:53.133Z,-0.40
2023-02-11T01:23:20.213Z,-0.50
2023-02-11T01:25:47.738Z,-0.50
2023-02-11T01:28:25.095Z,-0.40
2023-02-11T01:30:52.663Z,-0.40
2023-02-11T01:33:19.832Z,-0.30
2023-02-11T01:35:46.957Z,-0.20
2023-02-11T01:38:20.008Z,-0.10
2023-02-11T01:40:49.226Z,-0.10
2023-02-11T01:43:16.234Z,0.00
2023-02-11T01:46:05.449Z,0.10
2023-02-11T01:48:40.881Z,0.10
2023-02-11T01:51:16.541Z,0.10
2023-02-11T01:54:03.419Z,0.20
2023-02-11T01:56:49.944Z,0.20
2023-02-11T01:59:22.686Z,0.20
2023-02-11T02:01:56.682Z,0.20
2023-02-11T02:04:27.614Z,0.20
2023-02-11T02:07:02.675Z,0.20
2023-02-11T02:09:36.669Z,0.20
2023-02-11T02:12:03.553Z,0.10
2023-02-11T02:14:30.462Z,0.10
2023-02-11T02:16:57.101Z,0.10
2023-02-11T02:20:06.112Z,0.10
2023-02-11T02:22:53.916Z,0.10
2023-02-11T02:25:47.634Z,0.00
2023-02-11T02:28:20.868Z,0.00
2023-02-11T02:30:57.202Z,0.00
2023-02-11T02:33:38.807Z,0.00
2023-02-11T02:36:37.061Z,0.00
2023-02-11T02:39:10.955Z,0.10
2023-02-11T02:41:39.243Z,0.30
2023-02-11T02:44:08.151Z,0.40
2023-02-11T02:46:36.480Z,0.40
2023-02-11T02:49:03.734Z,0.50
2023-02-11T02:51:50.873Z,0.50
2023-02-11T02:54:23.388Z,0.50
2023-02-11T02:57:16.244Z,0.50
2023-02-11T02:59:57.956Z,0.60
2023-02-11T03:02:42.523Z,0.80
2023-02-11T03:05:15.241Z,0.80
2023-02-11T03:07:57.834Z,0.80
2023-02-11T03:10:32.825Z,0.80
2023-02-11T03:13:01.137Z,0.90
2023-02-11T03:15:32.398Z,0.90
2023-02-11T03:18:01.898Z,0.90
2023-02-11T03:20:33.425Z,1.00
2023-02-11T03:23:44.852Z,1.00
2023-02-11T03:26:24.637Z,1.00
2023-02-11T03:29:14.512Z,0.90
2023-02-11T03:31:55.937Z,0.80
2023-02-11T03:34:57.510Z,0.80
2023-02-11T03:37:27.514Z,0.70
2023-02-11T03:39:59.892Z,0.70
2023-02-11T03:42:30.923Z,0.70
2023-02-11T03:45:04.033Z,0.70
2023-02-11T03:47:35.502Z,0.70
2023-02-11T03:50:05.807Z,0.70
2023-02-11T03:52:33.822Z,0.70
2023-02-11T03:55:05.199Z,0.70
2023-02-11T03:57:34.244Z,0.80
2023-02-11T04:00:01.594Z,0.80
2023-02-11T04:02:32.971Z,0.80
2023-02-11T04:05:00.230Z,0.90
2023-02-11T04:07:28.102Z,0.90
2023-02-11T04:09:54.773Z,0.80
2023-02-11T04:12:21.800Z,0.80
2023-02-11T04:14:48.710Z,0.80
2023-02-11T04:17:15.616Z,0.80
2023-02-11T04:19:42.262Z,0.90
2023-02-11T04:22:09.247Z,0.90
2023-02-11T04:24:36.097Z,1.00
2023-02-11T04:27:02.822Z,1.00
2023-02-11T04:29:29.560Z,1.10
2023-02-11T04:31:56.640Z,1.10
2023-02-11T04:34:24.470Z,1.10
2023-02-11T04:36:51.191Z,1.10
2023-02-11T04:39:17.890Z,1.00
2023-02-11T04:41:44.531Z,1.00
2023-02-11T04:44:11.200Z,1.00
2023-02-11T04:46:38.105Z,1.10
2023-02-11T04:49:04.778Z,1.10
2023-02-11T04:51:31.952Z,1.00
2023-02-11T04:53:58.604Z,1.00
2023-02-11T04:56:25.259Z,1.00
2023-02-11T04:58:52.163Z,1.00
2023-02-11T05:01:18.855Z,1.00
2023-02-11T05:03:46.343Z,0.90
2023-02-11T05:06:13.320Z,0.90
2023-02-11T05:08:40.119Z,0.80
2023-02-11T05:11:08.422Z,0.80
2023-02-11T05:13:35.112Z,0.80
2023-02-11T05:16:01.770Z,0.80
2023-02-11T05:18:28.652Z,0.80
2023-02-11T05:20:55.289Z,0.80
2023-02-11T05:23:21.966Z,0.80
2023-02-11T05:25:49.234Z,0.70
2023-02-11T05:28:16.239Z,0.80
2023-02-11T05:30:42.909Z,0.80
2023-02-11T05:33:09.908Z,0.80
2023-02-11T05:35:36.557Z,0.90
2023-02-11T05:38:05.469Z,0.90
2023-02-11T05:40:32.392Z,0.90
2023-02-11T05:42:59.295Z,0.90
2023-02-11T05:45:25.937Z,1.00
2023-02-11T05:47:52.610Z,1.00
2023-02-11T05:50:19.822Z,0.90
2023-02-11T05:52:46.791Z,0.90
2023-02-11T05:55:13.828Z,0.90
2023-02-11T05:57:40.740Z,1.00
2023-02-11T06:00:08.590Z,1.00
2023-02-11T06:02:35.387Z,1.00
2023-02-11T06:05:02.192Z,1.00
2023-02-11T06:07:28.816Z,1.00
2023-02-11T06:09:55.540Z,1.00
2023-02-11T06:12:22.228Z,1.00
2023-02-11T06:14:48.934Z,1.00
2023-02-11T06:17:15.911Z,1.00
2023-02-11T06:19:42.796Z,1.00
2023-02-11T06:22:09.502Z,1.00
2023-02-11T06:25:00.029Z,1.00
2023-02-11T06:27:24.188Z,1.00
2023-02-11T06:29:52.671Z,1.00
2023-02-11T06:32:39.550Z,1.00
2023-02-11T06:35:08.911Z,1.10
2023-02-11T06:37:36.935Z,1.10
2023-02-11T06:40:03.948Z,1.10
2023-02-11T06:42:30.593Z,1.20
2023-02-11T06:45:13.265Z,1.20
2023-02-11T06:47:40.903Z,1.20
2023-02-11T06:50:11.180Z,1.10
2023-02-11T06:52:37.841Z,1.10
2023-02-11T06:55:05.425Z,1.10
2023-02-11T06:57:32.486Z,1.10
2023-02-11T06:59:59.425Z,1.00
2023-02-11T07:02:26.443Z,1.00
2023-02-11T07:04:53.131Z,1.00
2023-02-11T07:07:19.761Z,1.00
2023-02-11T07:09:46.646Z,1.00
2023-02-11T07:12:13.341Z,1.10
2023-02-11T07:14:40.609Z,1.10
2023-02-11T07:17:07.256Z,1.10
2023-02-11T07:19:34.313Z,1.10
2023-02-11T07:22:00.970Z,1.10
2023-02-11T07:24:27.694Z,1.10
2023-02-11T07:26:54.906Z,1.10
2023-02-11T07:29:21.600Z,1.10
2023-02-11T07:31:48.435Z,1.10
2023-02-11T07:34:15.443Z,1.10
2023-02-11T07:36:43.780Z,1.20
2023-02-11T07:39:10.528Z,1.20
2023-02-11T07:41:38.277Z,1.20
2023-02-11T07:44:05.174Z,1.20
2023-02-11T07:46:32.956Z,1.20
2023-02-11T07:48:59.983Z,1.20
2023-02-11T07:51:28.778Z,1.20
2023-02-11T07:53:58.228Z,1.30
2023-02-11T07:56:24.985Z,1.20
2023-02-11T07:58:51.693Z,1.20
2023-02-11T08:01:22.768Z,1.30
2023-02-11T08:03:49.489Z,1.30
2023-02-11T08:06:18.626Z,1.30
2023-02-11T08:08:45.319Z,1.40
2023-02-11T08:11:21.612Z,1.40
2023-02-11T08:13:48.801Z,1.40
2023-02-11T08:16:21.397Z,1.40
2023-02-11T08:18:49.242Z,1.30
2023-02-11T08:21:16.152Z,1.40
2023-02-11T08:23:44.249Z,1.40
2023-02-11T08:26:15.468Z,1.30
2023-02-11T08:28:44.261Z,1.30
2023-02-11T08:31:14.531Z,1.30
2023-02-11T08:33:41.949Z,1.30
2023-02-11T08:36:14.351Z,1.40
2023-02-11T08:38:41.585Z,1.40
2023-02-11T08:41:08.479Z,1.40
2023-02-11T08:43:36.168Z,1.50
2023-02-11T08:46:03.584Z,1.50
2023-02-11T08:48:30.729Z,1.60
2023-02-11T08:50:57.643Z,1.60
2023-02-11T08:53:25.280Z,1.70
2023-02-11T08:55:53.958Z,1.80
2023-02-11T08:58:22.475Z,1.90
2023-02-11T09:00:50.174Z,2.00
2023-02-11T09:03:17.659Z,2.00
2023-02-11T09:05:46.845Z,2.10
2023-02-11T09:08:14.425Z,2.10
2023-02-11T09:10:50.737Z,2.20
2023-02-11T09:13:17.958Z,2.20
2023-02-11T09:15:47.607Z,2.30
2023-02-11T09:18:14.613Z,2.30
2023-02-11T09:20:41.717Z,2.30
2023-02-11T09:23:09.806Z,2.30
2023-02-11T09:25:40.097Z,2.40
2023-02-11T09:28:07.574Z,2.40
2023-02-11T09:30:36.233Z,2.40
2023-02-11T09:33:03.639Z,2.40
2023-02-11T09:35:30.573Z,2.50
2023-02-11T09:37:57.472Z,2.60
2023-02-11T09:40:24.160Z,2.60
2023-02-11T09:43:04.108Z,2.70
2023-02-11T09:45:32.189Z,2.80
2023-02-11T09:48:05.831Z,2.80
2023-02-11T09:50:36.520Z,2.80
2023-02-11T09:53:24.745Z,2.70
2023-02-11T09:55:57.519Z,2.60
2023-02-11T09:58:33.614Z,2.60
2023-02-11T10:01:38.173Z,2.60
2023-02-11T10:04:34.303Z,2.70
2023-02-11T10:07:26.753Z,2.70
2023-02-11T10:10:33.174Z,2.70
2023-02-11T10:13:19.323Z,2.70
2023-02-11T10:16:12.300Z,2.80
2023-02-11T10:19:08.654Z,3.00
2023-02-11T10:21:57.128Z,3.30
2023-02-11T10:24:24.188Z,3.40
2023-02-11T10:26:52.344Z,3.60
2023-02-11T10:29:31.301Z,3.60
2023-02-11T10:32:00.596Z,3.50
2023-02-11T10:34:27.409Z,3.40
2023-02-11T10:36:54.323Z,3.20
2023-02-11T10:39:23.412Z,3.20
2023-02-11T10:42:08.559Z,3.30
2023-02-11T10:44:52.139Z,3.40
2023-02-11T10:47:25.449Z,3.40
2023-02-11T10:49:52.152Z,3.20
2023-02-11T10:52:25.725Z,3.20
2023-02-11T10:55:13.694Z,3.20
2023-02-11T10:57:57.696Z,3.30
2023-02-11T11:00:39.142Z,3.20
2023-02-11T11:03:22.658Z,3.20
2023-02-11T11:06:01.467Z,3.20
2023-02-11T11:08:50.711Z,3.10
2023-02-11T11:11:25.758Z,3.10
2023-02-11T11:13:52.367Z,3.10
2023-02-11T11:16:36.285Z,3.00
2023-02-11T11:19:09.324Z,3.00
2023-02-11T11:21:53.624Z,2.90
2023-02-11T11:24:27.662Z,2.90
2023-02-11T11:26:57.392Z,2.90
2023-02-11T11:33:30.993Z,2.80
2023-02-11T11:36:05.164Z,2.80
2023-02-11T11:38:33.324Z,2.80
2023-02-11T11:41:25.304Z,2.80
2023-02-11T11:44:17.221Z,2.90
2023-02-11T11:46:46.959Z,3.00
2023-02-11T11:49:30.924Z,3.00
2023-02-11T11:52:22.454Z,3.00
2023-02-11T11:55:16.107Z,3.10
2023-02-11T11:57:44.183Z,3.00
2023-02-11T12:00:20.836Z,3.10
2023-02-11T12:03:20.242Z,3.00
2023-02-11T12:05:59.295Z,3.10
2023-02-11T12:09:00.119Z,3.10
2023-02-11T12:11:48.925Z,3.10
2023-02-11T12:14:43.363Z,3.10
2023-02-11T12:17:24.564Z,3.20
2023-02-11T12:20:18.046Z,3.20
2023-02-11T12:23:04.722Z,3.10
2023-02-11T12:25:44.944Z,3.00
2023-02-11T12:28:23.753Z,3.00
2023-02-11T12:31:30.612Z,2.90
2023-02-11T12:34:38.316Z,2.80
2023-02-11T12:37:31.999Z,2.80
2023-02-11T12:40:15.747Z,2.80
2023-02-11T12:43:09.523Z,2.90
2023-02-11T12:46:14.327Z,3.00
2023-02-11T12:48:59.459Z,3.10
2023-02-11T12:52:08.843Z,3.20
2023-02-11T12:55:09.378Z,3.30
2023-02-11T12:57:38.293Z,3.20
2023-02-11T13:00:22.284Z,3.20
2023-02-11T13:03:07.212Z,3.30
2023-02-11T13:05:43.447Z,3.30
2023-02-11T13:08:31.219Z,3.40
2023-02-11T13:11:06.022Z,3.50
2023-02-11T13:14:25.039Z,3.60
2023-02-11T13:16:52.931Z,3.80
2023-02-11T13:19:26.605Z,3.90
2023-02-11T13:22:02.767Z,4.00
2023-02-11T13:24:41.665Z,3.90
2023-02-11T13:27:31.435Z,3.80
2023-02-11T13:30:13.913Z,3.70
2023-02-11T13:32:58.471Z,3.70
2023-02-11T13:35:30.370Z,3.70
2023-02-11T13:38:02.438Z,3.50
2023-02-11T13:40:36.770Z,3.40
2023-02-11T13:43:20.136Z,3.30
2023-02-11T13:45:48.810Z,3.30
2023-02-11T13:48:31.893Z,3.30
2023-02-11T13:51:08.714Z,3.20
2023-02-11T13:53:51.689Z,3.20
2023-02-11T13:56:39.627Z,3.20
2023-02-11T13:59:30.648Z,3.10
2023-02-11T14:02:19.195Z,3.10
2023-02-11T14:05:20.926Z,3.20
2023-02-11T14:08:27.987Z,3.20
2023-02-11T14:11:22.748Z,3.20
2023-02-11T14:13:49.609Z,3.30
2023-02-11T14:16:37.062Z,3.30
2023-02-11T14:19:06.517Z,3.30
2023-02-11T14:21:37.665Z,3.30
2023-02-11T14:24:14.675Z,3.30
2023-02-11T14:26:50.469Z,3.30
2023-02-11T14:29:33.373Z,3.30
2023-02-11T14:32:38.135Z,3.30
2023-02-11T14:35:18.507Z,3.30
2023-02-11T14:38:28.044Z,3.40
2023-02-11T14:41:17.217Z,3.40
2023-02-11T14:43:47.946Z,3.40
2023-02-11T14:46:20.022Z,3.40
2023-02-11T14:48:49.280Z,3.30
2023-02-11T14:51:25.896Z,3.30
2023-02-11T14:53:59.225Z,3.30
2023-02-11T14:56:31.033Z,3.30
2023-02-11T14:58:58.778Z,3.30
2023-02-11T15:01:40.711Z,3.30
2023-02-11T15:04:24.278Z,3.30
2023-02-11T15:06:51.369Z,3.30
2023-02-11T15:09:24.182Z,3.20
2023-02-11T15:11:51.830Z,3.20
2023-02-11T15:14:26.024Z,3.20
2023-02-11T15:16:56.238Z,3.20
2023-02-11T15:19:41.418Z,3.20
2023-02-11T15:22:23.539Z,3.20
2023-02-11T15:25:08.424Z,3.20
2023-02-11T15:27:47.451Z,3.10
2023-02-11T15:30:23.392Z,3.10
2023-02-11T15:32:51.749Z,3.00
2023-02-11T15:35:18.936Z,3.00
2023-02-11T15:37:46.436Z,3.00
2023-02-11T15:40:23.896Z,3.00
2023-02-11T15:42:58.348Z,3.00
2023-02-11T15:45:51.629Z,3.00
2023-02-11T15:48:34.430Z,2.90
2023-02-11T15:51:17.588Z,2.90
2023-02-11T15:53:52.957Z,2.80
2023-02-11T15:56:25.422Z,2.80
2023-02-11T15:58:55.370Z,2.80
2023-02-11T16:01:34.368Z,2.70
2023-02-11T16:04:02.437Z,2.70
2023-02-11T16:06:43.600Z,2.70
2023-02-11T16:09:10.998Z,2.70
2023-02-11T16:11:55.323Z,2.70
2023-02-11T16:14:27.790Z,2.60
2023-02-11T16:16:57.956Z,2.60
2023-02-11T16:19:26.418Z,2.60
2023-02-11T16:21:55.130Z,2.60
2023-02-11T16:24:33.763Z,2.60
2023-02-11T16:27:03.217Z,2.60
2023-02-11T16:29:33.142Z,2.60
2023-02-11T16:32:38.518Z,2.60
2023-02-11T16:35:11.212Z,2.60
2023-02-11T16:37:38.320Z,2.50
2023-02-11T16:40:05.768Z,2.50
2023-02-11T16:42:32.424Z,2.50
2023-02-11T16:45:00.050Z,2.50
2023-02-11T16:47:28.407Z,2.50
2023-02-11T16:49:56.595Z,2.50
2023-02-11T16:52:23.817Z,2.50
2023-02-11T16:54:51.357Z,2.60
2023-02-11T16:57:20.841Z,2.60
2023-02-11T16:59:47.991Z,2.60
2023-02-11T17:02:31.103Z,2.50
2023-02-11T17:05:04.004Z,2.60
2023-02-11T17:07:31.113Z,2.60
2023-02-11T17:09:58.262Z,2.60
2023-02-11T17:12:25.470Z,2.60
2023-02-11T17:14:53.100Z,2.60
2023-02-11T17:17:20.092Z,2.60
2023-02-11T17:19:47.833Z,2.60
2023-02-11T17:22:14.775Z,2.60
2023-02-11T17:24:41.396Z,2.60
2023-02-11T17:27:09.541Z,2.60
2023-02-11T17:29:37.005Z,2.60
2023-02-11T17:32:03.814Z,2.60
2023-02-11T17:34:32.510Z,2.60
2023-02-11T17:37:00.169Z,2.60
2023-02-11T17:39:27.915Z,2.60
2023-02-11T17:41:54.577Z,2.60
2023-02-11T17:44:21.511Z,2.60
2023-02-11T17:46:48.557Z,2.60
2023-02-11T17:49:16.334Z,2.60
2023-02-11T17:51:43.032Z,2.60
2023-02-11T17:54:16.001Z,2.60
2023-02-11T17:56:43.268Z,2.60
2023-02-11T17:59:11.468Z,2.60
2023-02-11T18:01:39.575Z,2.60
2023-02-11T18:04:07.962Z,2.60
2023-02-11T18:06:35.056Z,2.60
2023-02-11T18:09:04.188Z,2.50
2023-02-11T18:11:33.691Z,2.50
2023-02-11T18:14:01.843Z,2.50
2023-02-11T18:16:30.159Z,2.50
2023-02-11T18:18:59.863Z,2.50
2023-02-11T18:21:26.688Z,2.60
2023-02-11T18:23:53.990Z,2.50
2023-02-11T18:26:21.910Z,2.50
2023-02-11T18:28:48.961Z,2.60
2023-02-11T18:31:17.364Z,2.60
2023-02-11T18:33:44.279Z,2.60
2023-02-11T18:36:15.601Z,2.60
2023-02-11T18:38:45.994Z,2.60
2023-02-11T18:41:13.727Z,2.60
2023-02-11T18:43:40.693Z,2.60
2023-02-11T18:46:10.788Z,2.60
2023-02-11T18:48:38.629Z,2.60
2023-02-11T18:51:10.276Z,2.60
2023-02-11T18:53:37.277Z,2.40
2023-02-11T18:56:16.334Z,2.60
2023-02-11T18:58:43.109Z,2.60
2023-02-11T19:01:24.400Z,2.60
2023-02-11T19:03:51.468Z,2.60
2023-02-11T19:06:21.219Z,2.60
2023-02-11T19:08:48.004Z,2.60
2023-02-11T19:11:17.290Z,2.60
2023-02-11T19:13:44.358Z,2.60
2023-02-11T19:16:12.494Z,2.60
2023-02-11T19:18:39.848Z,2.60
2023-02-11T19:21:11.570Z,2.60
2023-02-11T19:23:38.937Z,2.60
2023-02-11T19:26:06.472Z,2.60
2023-02-11T19:28:35.479Z,2.70
2023-02-11T19:31:07.177Z,2.70
2023-02-11T19:33:34.026Z,2.70
2023-02-11T19:36:05.747Z,2.70
2023-02-11T19:38:32.718Z,2.70
2023-02-11T19:40:59.525Z,2.60
2023-02-11T19:43:26.559Z,2.70
2023-02-11T19:46:02.322Z,2.70
2023-02-11T19:48:29.185Z,2.70
2023-02-11T19:50:56.273Z,2.70
2023-02-11T19:53:23.399Z,2.60
2023-02-11T19:55:51.077Z,2.60
2023-02-11T19:58:18.021Z,2.60
2023-02-11T20:00:44.784Z,2.60
2023-02-11T20:03:11.468Z,2.60
2023-02-11T20:05:40.217Z,2.60
2023-02-11T20:08:06.876Z,2.60
2023-02-11T20:10:34.903Z,2.60
2023-02-11T20:13:01.542Z,2.60
2023-02-11T20:15:28.485Z,2.60
2023-02-11T20:17:55.145Z,2.60
2023-02-11T20:20:21.853Z,2.60
2023-02-11T20:22:49.129Z,2.60
2023-02-11T20:25:15.840Z,2.60
2023-02-11T20:27:47.930Z,2.60
2023-02-11T20:30:15.029Z,2.60
2023-02-11T20:32:41.726Z,2.60
2023-02-11T20:35:09.394Z,2.60
2023-02-11T20:37:36.076Z,2.60
2023-02-11T20:40:02.849Z,2.60
2023-02-11T20:42:30.029Z,2.60
2023-02-11T20:44:56.906Z,2.60
2023-02-11T20:47:23.536Z,2.60
2023-02-11T20:49:50.336Z,2.60
2023-02-11T20:52:17.123Z,2.60
2023-02-11T20:54:43.762Z,2.60
2023-02-11T20:57:10.788Z,2.60
2023-02-11T20:59:38.890Z,2.60
2023-02-11T21:02:05.670Z,2.60
2023-02-11T21:04:32.807Z,2.60
2023-02-11T21:07:01.827Z,2.60
2023-02-11T21:09:31.088Z,2.60
2023-02-11T21:11:58.511Z,2.60
2023-02-11T21:14:25.982Z,2.50
2023-02-11T21:16:52.743Z,2.60
2023-02-11T21:19:20.320Z,2.60
2023-02-11T21:21:47.344Z,2.50
2023-02-11T21:24:14.353Z,2.60
2023-02-11T21:26:41.329Z,2.60
2023-02-11T21:29:08.664Z,2.60
2023-02-11T21:31:36.818Z,2.60
2023-02-11T21:34:04.135Z,2.50
2023-02-11T21:36:30.879Z,2.50
2023-02-11T21:38:58.547Z,2.60
2023-02-11T21:41:26.908Z,2.60
2023-02-11T21:43:53.627Z,2.50
2023-02-11T21:46:21.584Z,2.50
2023-02-11T21:48:49.135Z,2.50
2023-02-11T21:51:21.486Z,2.50
2023-02-11T21:53:52.467Z,2.50
2023-02-11T21:56:19.332Z,2.60
2023-02-11T21:58:46.698Z,2.60
2023-02-11T22:01:16.567Z,2.60
2023-02-11T22:03:44.079Z,2.60
2023-02-11T22:06:13.247Z,2.60
2023-02-11T22:08:40.541Z,2.60
2023-02-11T22:11:10.008Z,2.60
2023-02-11T22:13:37.153Z,2.70
2023-02-11T22:16:07.528Z,2.70
2023-02-11T22:18:34.687Z,2.70
2023-02-11T22:21:11.502Z,2.70
2023-02-11T22:23:39.165Z,2.70
2023-02-11T22:26:16.210Z,2.70
2023-02-11T22:28:43.530Z,2.70
2023-02-11T22:31:13.408Z,2.70
2023-02-11T22:33:40.891Z,2.70
2023-02-11T22:36:13.028Z,2.70
2023-02-11T22:38:39.667Z,2.70
2023-02-11T22:41:09.779Z,2.70
2023-02-11T22:43:36.886Z,2.70
2023-02-11T22:46:05.972Z,2.70
2023-02-11T22:48:34.438Z,2.70
2023-02-11T22:51:09.679Z,2.70
2023-02-11T22:53:36.635Z,2.70
2023-02-11T22:56:09.299Z,2.70
2023-02-11T22:58:36.744Z,2.70
2023-02-11T23:01:04.427Z,2.70
2023-02-11T23:03:31.726Z,2.70
2023-02-11T23:05:59.252Z,2.70
2023-02-11T23:08:26.785Z,2.70
2023-02-11T23:10:53.864Z,2.70
2023-02-11T23:13:20.676Z,2.70
2023-02-11T23:15:48.076Z,2.70
2023-02-11T23:18:14.841Z,2.70
2023-02-11T23:20:43.845Z,2.70
2023-02-11T23:23:10.811Z,2.70
2023-02-11T23:25:43.500Z,2.70
2023-02-11T23:28:11.828Z,2.70
2023-02-11T23:30:38.574Z,2.70
2023-02-11T23:33:05.353Z,2.70
2023-02-11T23:35:32.584Z,2.70
2023-02-11T23:37:59.237Z,2.70
2023-02-11T23:40:26.102Z,2.70
2023-02-11T23:42:52.764Z,2.70
2023-02-11T23:45:19.454Z,2.70
2023-02-11T23:47:47.794Z,2.70
2023-02-11T23:50:14.459Z,2.70
2023-02-11T23:52:41.602Z,2.80
2023-02-11T23:55:08.371Z,2.70
2023-02-11T23:57:35.468Z,2.70
